sensor_id;sensor_type;location;lat;lon;timestamp;P1;durP1;ratioP1;P2;durP2;ratioP2
4434;SDS011;46552;52.150;8.428;2023-10-19T00:01:06;30.60;;;17.73;;
4434;SDS011;46552;52.150;8.428;2023-10-19T00:03:36;25.77;;;15.20;;
4434;SDS011;46552;52.150;8.428;2023-10-19T00:06:03;28.17;;;15.60;;
4434;SDS011;46552;52.150;8.428;2023-10-19T00:08:31;27.73;;;16.37;;
4434;SDS011;46552;52.150;8.428;2023-10-19T00:11:07;25.87;;;15.53;;
4434;SDS011;46552;52.150;8.428;2023-10-19T00:13:37;33.57;;;18.40;;
4434;SDS011;46552;52.150;8.428;2023-10-19T00:16:04;26.83;;;16.97;;
4434;SDS011;46552;52.150;8.428;2023-10-19T00:18:37;31.87;;;17.63;;
4434;SDS011;46552;52.150;8.428;2023-10-19T00:21:07;29.87;;;16.90;;
4434;SDS011;46552;52.150;8.428;2023-10-19T00:23:44;34.37;;;19.63;;
4434;SDS011;46552;52.150;8.428;2023-10-19T00:26:14;32.70;;;16.80;;
4434;SDS011;46552;52.150;8.428;2023-10-19T00:28:45;30.33;;;18.93;;
4434;SDS011;46552;52.150;8.428;2023-10-19T00:31:14;36.53;;;17.63;;
4434;SDS011;46552;52.150;8.428;2023-10-19T00:33:45;30.30;;;19.33;;
4434;SDS011;46552;52.150;8.428;2023-10-19T00:36:12;29.57;;;17.90;;
4434;SDS011;46552;52.150;8.428;2023-10-19T00:38:40;36.50;;;19.80;;
4434;SDS011;46552;52.150;8.428;2023-10-19T00:41:18;34.03;;;19.50;;
4434;SDS011;46552;52.150;8.428;2023-10-19T00:43:49;25.03;;;17.20;;
4434;SDS011;46552;52.150;8.428;2023-10-19T00:46:22;37.23;;;19.33;;
4434;SDS011;46552;52.150;8.428;2023-10-19T00:48:57;30.13;;;18.33;;
4434;SDS011;46552;52.150;8.428;2023-10-19T00:51:26;34.80;;;19.10;;
4434;SDS011;46552;52.150;8.428;2023-10-19T00:54:07;36.33;;;18.60;;
4434;SDS011;46552;52.150;8.428;2023-10-19T00:56:40;38.00;;;20.43;;
4434;SDS011;46552;52.150;8.428;2023-10-19T00:59:12;32.77;;;18.90;;
4434;SDS011;46552;52.150;8.428;2023-10-19T01:01:40;38.10;;;20.40;;
4434;SDS011;46552;52.150;8.428;2023-10-19T01:04:12;32.13;;;19.80;;
4434;SDS011;46552;52.150;8.428;2023-10-19T01:06:41;31.83;;;19.10;;
4434;SDS011;46552;52.150;8.428;2023-10-19T01:09:25;28.70;;;18.80;;
4434;SDS011;46552;52.150;8.428;2023-10-19T01:11:57;34.93;;;19.10;;
4434;SDS011;46552;52.150;8.428;2023-10-19T01:14:27;30.83;;;19.50;;
4434;SDS011;46552;52.150;8.428;2023-10-19T01:16:54;35.87;;;22.07;;
4434;SDS011;46552;52.150;8.428;2023-10-19T01:19:22;31.50;;;19.67;;
4434;SDS011;46552;52.150;8.428;2023-10-19T01:21:52;36.63;;;21.20;;
4434;SDS011;46552;52.150;8.428;2023-10-19T01:24:26;37.50;;;21.77;;
4434;SDS011;46552;52.150;8.428;2023-10-19T01:27:05;35.10;;;19.67;;
4434;SDS011;46552;52.150;8.428;2023-10-19T01:29:33;34.90;;;22.17;;
4434;SDS011;46552;52.150;8.428;2023-10-19T01:32:03;33.70;;;20.13;;
4434;SDS011;46552;52.150;8.428;2023-10-19T01:34:33;36.67;;;22.07;;
4434;SDS011;46552;52.150;8.428;2023-10-19T01:37:01;33.23;;;21.03;;
4434;SDS011;46552;52.150;8.428;2023-10-19T01:39:32;40.73;;;21.90;;
4434;SDS011;46552;52.150;8.428;2023-10-19T01:42:02;36.10;;;21.10;;
4434;SDS011;46552;52.150;8.428;2023-10-19T01:44:30;33.30;;;20.37;;
4434;SDS011;46552;52.150;8.428;2023-10-19T01:46:58;41.17;;;23.17;;
4434;SDS011;46552;52.150;8.428;2023-10-19T01:49:29;39.27;;;21.80;;
4434;SDS011;46552;52.150;8.428;2023-10-19T01:51:55;47.27;;;24.20;;
4434;SDS011;46552;52.150;8.428;2023-10-19T01:54:23;44.00;;;21.30;;
4434;SDS011;46552;52.150;8.428;2023-10-19T01:56:52;33.07;;;22.23;;
4434;SDS011;46552;52.150;8.428;2023-10-19T01:59:22;39.27;;;23.20;;
4434;SDS011;46552;52.150;8.428;2023-10-19T02:01:52;35.90;;;20.97;;
4434;SDS011;46552;52.150;8.428;2023-10-19T02:04:20;36.43;;;21.47;;
4434;SDS011;46552;52.150;8.428;2023-10-19T02:06:47;36.40;;;22.03;;
4434;SDS011;46552;52.150;8.428;2023-10-19T02:09:16;38.53;;;21.80;;
4434;SDS011;46552;52.150;8.428;2023-10-19T02:11:43;35.17;;;21.23;;
4434;SDS011;46552;52.150;8.428;2023-10-19T02:14:15;41.40;;;21.00;;
4434;SDS011;46552;52.150;8.428;2023-10-19T02:16:45;38.50;;;23.00;;
4434;SDS011;46552;52.150;8.428;2023-10-19T02:19:13;36.37;;;23.37;;
4434;SDS011;46552;52.150;8.428;2023-10-19T02:21:40;40.13;;;23.43;;
4434;SDS011;46552;52.150;8.428;2023-10-19T02:24:07;43.63;;;24.00;;
4434;SDS011;46552;52.150;8.428;2023-10-19T02:26:37;38.73;;;22.07;;
4434;SDS011;46552;52.150;8.428;2023-10-19T02:29:03;37.37;;;20.93;;
4434;SDS011;46552;52.150;8.428;2023-10-19T02:31:34;34.40;;;21.27;;
4434;SDS011;46552;52.150;8.428;2023-10-19T02:34:03;33.37;;;20.97;;
4434;SDS011;46552;52.150;8.428;2023-10-19T02:36:31;32.87;;;20.17;;
4434;SDS011;46552;52.150;8.428;2023-10-19T02:38:57;35.27;;;22.10;;
4434;SDS011;46552;52.150;8.428;2023-10-19T02:41:29;37.00;;;21.27;;
4434;SDS011;46552;52.150;8.428;2023-10-19T02:43:55;36.30;;;21.23;;
4434;SDS011;46552;52.150;8.428;2023-10-19T02:46:35;36.73;;;21.00;;
4434;SDS011;46552;52.150;8.428;2023-10-19T02:49:04;39.70;;;23.00;;
4434;SDS011;46552;52.150;8.428;2023-10-19T02:51:36;36.40;;;22.10;;
4434;SDS011;46552;52.150;8.428;2023-10-19T02:54:02;40.00;;;20.33;;
4434;SDS011;46552;52.150;8.428;2023-10-19T02:56:30;34.47;;;21.17;;
4434;SDS011;46552;52.150;8.428;2023-10-19T02:58:56;30.10;;;19.40;;
4434;SDS011;46552;52.150;8.428;2023-10-19T03:01:29;33.30;;;21.13;;
4434;SDS011;46552;52.150;8.428;2023-10-19T03:03:59;31.17;;;20.10;;
4434;SDS011;46552;52.150;8.428;2023-10-19T03:06:27;32.13;;;18.30;;
4434;SDS011;46552;52.150;8.428;2023-10-19T03:08:56;29.27;;;18.60;;
4434;SDS011;46552;52.150;8.428;2023-10-19T03:11:26;28.73;;;17.20;;
4434;SDS011;46552;52.150;8.428;2023-10-19T03:13:52;26.67;;;16.73;;
4434;SDS011;46552;52.150;8.428;2023-10-19T03:16:21;26.73;;;17.30;;
4434;SDS011;46552;52.150;8.428;2023-10-19T03:18:48;25.60;;;17.40;;
4434;SDS011;46552;52.150;8.428;2023-10-19T03:21:17;26.57;;;17.20;;
4434;SDS011;46552;52.150;8.428;2023-10-19T03:23:44;25.40;;;16.97;;
4434;SDS011;46552;52.150;8.428;2023-10-19T03:26:12;25.70;;;15.97;;
4434;SDS011;46552;52.150;8.428;2023-10-19T03:28:55;27.60;;;16.40;;
4434;SDS011;46552;52.150;8.428;2023-10-19T03:31:26;23.90;;;15.83;;
4434;SDS011;46552;52.150;8.428;2023-10-19T03:33:53;25.37;;;15.57;;
4434;SDS011;46552;52.150;8.428;2023-10-19T03:36:23;25.80;;;16.40;;
4434;SDS011;46552;52.150;8.428;2023-10-19T03:38:50;23.67;;;15.60;;
4434;SDS011;46552;52.150;8.428;2023-10-19T03:41:18;22.03;;;14.03;;
4434;SDS011;46552;52.150;8.428;2023-10-19T03:43:48;20.83;;;13.73;;
4434;SDS011;46552;52.150;8.428;2023-10-19T03:46:17;24.93;;;15.63;;
4434;SDS011;46552;52.150;8.428;2023-10-19T03:48:54;26.17;;;15.43;;
4434;SDS011;46552;52.150;8.428;2023-10-19T03:51:28;27.50;;;15.53;;
4434;SDS011;46552;52.150;8.428;2023-10-19T03:54:04;22.57;;;15.10;;
4434;SDS011;46552;52.150;8.428;2023-10-19T03:56:48;23.97;;;14.60;;
4434;SDS011;46552;52.150;8.428;2023-10-19T03:59:15;21.30;;;13.80;;
4434;SDS011;46552;52.150;8.428;2023-10-19T04:01:43;21.63;;;13.80;;
4434;SDS011;46552;52.150;8.428;2023-10-19T04:04:10;20.20;;;13.13;;
4434;SDS011;46552;52.150;8.428;2023-10-19T04:06:40;19.90;;;13.13;;
4434;SDS011;46552;52.150;8.428;2023-10-19T04:09:11;22.20;;;12.77;;
4434;SDS011;46552;52.150;8.428;2023-10-19T04:11:40;17.70;;;11.10;;
4434;SDS011;46552;52.150;8.428;2023-10-19T04:14:14;19.00;;;12.30;;
4434;SDS011;46552;52.150;8.428;2023-10-19T04:16:42;17.17;;;12.13;;
4434;SDS011;46552;52.150;8.428;2023-10-19T04:19:10;18.70;;;12.10;;
4434;SDS011;46552;52.150;8.428;2023-10-19T04:21:37;19.50;;;12.40;;
4434;SDS011;46552;52.150;8.428;2023-10-19T04:24:06;19.20;;;11.40;;
4434;SDS011;46552;52.150;8.428;2023-10-19T04:26:34;20.20;;;11.77;;
4434;SDS011;46552;52.150;8.428;2023-10-19T04:29:03;18.23;;;10.40;;
4434;SDS011;46552;52.150;8.428;2023-10-19T04:31:35;18.40;;;11.50;;
4434;SDS011;46552;52.150;8.428;2023-10-19T04:34:08;17.53;;;10.93;;
4434;SDS011;46552;52.150;8.428;2023-10-19T04:36:35;20.20;;;10.63;;
4434;SDS011;46552;52.150;8.428;2023-10-19T04:39:04;17.30;;;11.70;;
4434;SDS011;46552;52.150;8.428;2023-10-19T04:41:37;24.50;;;14.73;;
4434;SDS011;46552;52.150;8.428;2023-10-19T04:44:06;18.23;;;12.77;;
4434;SDS011;46552;52.150;8.428;2023-10-19T04:46:34;19.90;;;10.80;;
4434;SDS011;46552;52.150;8.428;2023-10-19T04:49:01;18.63;;;11.07;;
4434;SDS011;46552;52.150;8.428;2023-10-19T04:51:30;17.63;;;11.00;;
4434;SDS011;46552;52.150;8.428;2023-10-19T04:53:58;15.87;;;10.57;;
4434;SDS011;46552;52.150;8.428;2023-10-19T04:56:27;17.10;;;9.90;;
4434;SDS011;46552;52.150;8.428;2023-10-19T04:58:54;14.40;;;9.80;;
4434;SDS011;46552;52.150;8.428;2023-10-19T05:01:21;16.57;;;11.07;;
4434;SDS011;46552;52.150;8.428;2023-10-19T05:03:49;20.27;;;11.20;;
4434;SDS011;46552;52.150;8.428;2023-10-19T05:06:16;16.67;;;9.90;;
4434;SDS011;46552;52.150;8.428;2023-10-19T05:08:43;17.53;;;9.80;;
4434;SDS011;46552;52.150;8.428;2023-10-19T05:11:12;14.30;;;9.70;;
4434;SDS011;46552;52.150;8.428;2023-10-19T05:13:41;15.77;;;9.90;;
4434;SDS011;46552;52.150;8.428;2023-10-19T05:16:08;14.50;;;8.50;;
4434;SDS011;46552;52.150;8.428;2023-10-19T05:18:36;15.53;;;9.13;;
4434;SDS011;46552;52.150;8.428;2023-10-19T05:21:03;15.90;;;9.77;;
4434;SDS011;46552;52.150;8.428;2023-10-19T05:23:30;15.30;;;9.93;;
4434;SDS011;46552;52.150;8.428;2023-10-19T05:26:00;18.17;;;11.13;;
4434;SDS011;46552;52.150;8.428;2023-10-19T05:28:28;18.17;;;9.83;;
4434;SDS011;46552;52.150;8.428;2023-10-19T05:30:57;16.90;;;10.50;;
4434;SDS011;46552;52.150;8.428;2023-10-19T05:33:26;17.30;;;10.87;;
4434;SDS011;46552;52.150;8.428;2023-10-19T05:35:54;17.43;;;10.90;;
4434;SDS011;46552;52.150;8.428;2023-10-19T05:38:21;19.63;;;11.57;;
4434;SDS011;46552;52.150;8.428;2023-10-19T05:40:49;20.77;;;12.20;;
4434;SDS011;46552;52.150;8.428;2023-10-19T05:43:17;19.47;;;12.40;;
4434;SDS011;46552;52.150;8.428;2023-10-19T05:45:44;16.67;;;11.70;;
4434;SDS011;46552;52.150;8.428;2023-10-19T05:48:16;15.80;;;10.07;;
4434;SDS011;46552;52.150;8.428;2023-10-19T05:50:44;16.63;;;10.53;;
4434;SDS011;46552;52.150;8.428;2023-10-19T05:53:11;22.23;;;11.47;;
4434;SDS011;46552;52.150;8.428;2023-10-19T05:55:39;18.53;;;11.17;;
4434;SDS011;46552;52.150;8.428;2023-10-19T05:58:07;19.07;;;11.67;;
4434;SDS011;46552;52.150;8.428;2023-10-19T06:00:34;19.63;;;13.43;;
4434;SDS011;46552;52.150;8.428;2023-10-19T06:03:01;17.50;;;10.63;;
4434;SDS011;46552;52.150;8.428;2023-10-19T06:05:31;18.23;;;10.73;;
4434;SDS011;46552;52.150;8.428;2023-10-19T06:07:59;18.57;;;11.70;;
4434;SDS011;46552;52.150;8.428;2023-10-19T06:10:27;19.93;;;11.83;;
4434;SDS011;46552;52.150;8.428;2023-10-19T06:12:55;19.67;;;11.17;;
4434;SDS011;46552;52.150;8.428;2023-10-19T06:15:23;20.27;;;11.17;;
4434;SDS011;46552;52.150;8.428;2023-10-19T06:17:50;17.27;;;11.20;;
4434;SDS011;46552;52.150;8.428;2023-10-19T06:20:18;21.97;;;11.33;;
4434;SDS011;46552;52.150;8.428;2023-10-19T06:22:54;16.73;;;9.60;;
4434;SDS011;46552;52.150;8.428;2023-10-19T06:25:26;18.63;;;13.47;;
4434;SDS011;46552;52.150;8.428;2023-10-19T06:27:53;19.87;;;12.50;;
4434;SDS011;46552;52.150;8.428;2023-10-19T06:30:22;21.80;;;12.67;;
4434;SDS011;46552;52.150;8.428;2023-10-19T06:32:52;21.17;;;12.37;;
4434;SDS011;46552;52.150;8.428;2023-10-19T06:35:20;18.20;;;12.37;;
4434;SDS011;46552;52.150;8.428;2023-10-19T06:37:48;19.60;;;13.17;;
4434;SDS011;46552;52.150;8.428;2023-10-19T06:40:18;22.53;;;13.17;;
4434;SDS011;46552;52.150;8.428;2023-10-19T06:42:45;21.00;;;14.30;;
4434;SDS011;46552;52.150;8.428;2023-10-19T06:45:14;23.13;;;14.80;;
4434;SDS011;46552;52.150;8.428;2023-10-19T06:47:42;22.90;;;14.10;;
4434;SDS011;46552;52.150;8.428;2023-10-19T06:50:10;19.60;;;13.07;;
4434;SDS011;46552;52.150;8.428;2023-10-19T06:52:41;21.87;;;14.10;;
4434;SDS011;46552;52.150;8.428;2023-10-19T06:55:09;22.27;;;14.43;;
4434;SDS011;46552;52.150;8.428;2023-10-19T06:57:40;23.40;;;14.27;;
4434;SDS011;46552;52.150;8.428;2023-10-19T07:00:09;23.37;;;15.80;;
4434;SDS011;46552;52.150;8.428;2023-10-19T07:02:39;24.93;;;15.03;;
4434;SDS011;46552;52.150;8.428;2023-10-19T07:05:08;23.90;;;16.20;;
4434;SDS011;46552;52.150;8.428;2023-10-19T07:07:38;25.83;;;15.27;;
4434;SDS011;46552;52.150;8.428;2023-10-19T07:10:06;26.67;;;15.43;;
4434;SDS011;46552;52.150;8.428;2023-10-19T07:12:34;26.27;;;14.33;;
4434;SDS011;46552;52.150;8.428;2023-10-19T07:15:05;24.17;;;15.47;;
4434;SDS011;46552;52.150;8.428;2023-10-19T07:17:35;28.37;;;18.40;;
4434;SDS011;46552;52.150;8.428;2023-10-19T07:20:03;28.00;;;16.93;;
4434;SDS011;46552;52.150;8.428;2023-10-19T07:22:32;28.33;;;16.70;;
4434;SDS011;46552;52.150;8.428;2023-10-19T07:24:59;26.50;;;16.43;;
4434;SDS011;46552;52.150;8.428;2023-10-19T07:27:30;26.27;;;18.00;;
4434;SDS011;46552;52.150;8.428;2023-10-19T07:29:58;25.70;;;16.40;;
4434;SDS011;46552;52.150;8.428;2023-10-19T07:32:27;25.13;;;15.13;;
4434;SDS011;46552;52.150;8.428;2023-10-19T07:34:57;27.70;;;18.00;;
4434;SDS011;46552;52.150;8.428;2023-10-19T07:37:24;27.73;;;17.10;;
4434;SDS011;46552;52.150;8.428;2023-10-19T07:39:52;40.50;;;18.13;;
4434;SDS011;46552;52.150;8.428;2023-10-19T07:42:22;27.37;;;16.17;;
4434;SDS011;46552;52.150;8.428;2023-10-19T07:44:50;31.30;;;19.13;;
4434;SDS011;46552;52.150;8.428;2023-10-19T07:47:19;32.13;;;19.67;;
4434;SDS011;46552;52.150;8.428;2023-10-19T07:49:48;33.47;;;18.03;;
4434;SDS011;46552;52.150;8.428;2023-10-19T07:52:17;29.27;;;18.50;;
4434;SDS011;46552;52.150;8.428;2023-10-19T07:54:44;42.27;;;19.73;;
4434;SDS011;46552;52.150;8.428;2023-10-19T07:57:12;29.83;;;18.10;;
4434;SDS011;46552;52.150;8.428;2023-10-19T07:59:40;32.70;;;17.50;;
4434;SDS011;46552;52.150;8.428;2023-10-19T08:02:08;27.20;;;18.77;;
4434;SDS011;46552;52.150;8.428;2023-10-19T08:04:36;34.53;;;17.27;;
4434;SDS011;46552;52.150;8.428;2023-10-19T08:07:06;29.00;;;17.07;;
4434;SDS011;46552;52.150;8.428;2023-10-19T08:09:33;29.90;;;17.70;;
4434;SDS011;46552;52.150;8.428;2023-10-19T08:12:01;27.40;;;17.30;;
4434;SDS011;46552;52.150;8.428;2023-10-19T08:14:30;31.77;;;17.53;;
4434;SDS011;46552;52.150;8.428;2023-10-19T08:16:57;27.43;;;16.60;;
4434;SDS011;46552;52.150;8.428;2023-10-19T08:19:25;27.77;;;17.00;;
4434;SDS011;46552;52.150;8.428;2023-10-19T08:21:56;30.40;;;17.17;;
4434;SDS011;46552;52.150;8.428;2023-10-19T08:24:25;32.93;;;16.97;;
4434;SDS011;46552;52.150;8.428;2023-10-19T08:26:54;27.63;;;16.50;;
4434;SDS011;46552;52.150;8.428;2023-10-19T08:29:21;26.83;;;17.90;;
4434;SDS011;46552;52.150;8.428;2023-10-19T08:31:49;29.40;;;18.53;;
4434;SDS011;46552;52.150;8.428;2023-10-19T08:34:17;30.30;;;19.57;;
4434;SDS011;46552;52.150;8.428;2023-10-19T08:36:45;35.53;;;21.37;;
4434;SDS011;46552;52.150;8.428;2023-10-19T08:39:14;30.57;;;18.37;;
4434;SDS011;46552;52.150;8.428;2023-10-19T08:41:44;36.50;;;17.23;;
4434;SDS011;46552;52.150;8.428;2023-10-19T08:44:13;29.17;;;17.10;;
4434;SDS011;46552;52.150;8.428;2023-10-19T08:46:42;25.43;;;16.93;;
4434;SDS011;46552;52.150;8.428;2023-10-19T08:49:10;36.37;;;18.40;;
4434;SDS011;46552;52.150;8.428;2023-10-19T08:51:37;28.43;;;15.77;;
4434;SDS011;46552;52.150;8.428;2023-10-19T08:54:05;26.57;;;17.20;;
4434;SDS011;46552;52.150;8.428;2023-10-19T08:56:35;29.30;;;16.90;;
4434;SDS011;46552;52.150;8.428;2023-10-19T08:59:05;29.27;;;17.70;;
4434;SDS011;46552;52.150;8.428;2023-10-19T09:01:32;25.80;;;17.00;;
4434;SDS011;46552;52.150;8.428;2023-10-19T09:04:00;25.50;;;16.17;;
4434;SDS011;46552;52.150;8.428;2023-10-19T09:06:28;22.23;;;15.10;;
4434;SDS011;46552;52.150;8.428;2023-10-19T09:08:56;23.50;;;15.63;;
4434;SDS011;46552;52.150;8.428;2023-10-19T09:11:24;26.73;;;15.43;;
4434;SDS011;46552;52.150;8.428;2023-10-19T09:13:53;25.60;;;17.43;;
4434;SDS011;46552;52.150;8.428;2023-10-19T09:16:24;22.13;;;15.33;;
4434;SDS011;46552;52.150;8.428;2023-10-19T09:18:51;19.23;;;12.03;;
4434;SDS011;46552;52.150;8.428;2023-10-19T09:21:19;18.97;;;12.33;;
4434;SDS011;46552;52.150;8.428;2023-10-19T09:23:53;16.87;;;10.40;;
4434;SDS011;46552;52.150;8.428;2023-10-19T09:26:21;15.37;;;11.80;;
4434;SDS011;46552;52.150;8.428;2023-10-19T09:28:49;20.20;;;11.93;;
4434;SDS011;46552;52.150;8.428;2023-10-19T09:31:19;18.90;;;11.70;;
4434;SDS011;46552;52.150;8.428;2023-10-19T09:33:51;22.57;;;13.10;;
4434;SDS011;46552;52.150;8.428;2023-10-19T09:36:18;19.03;;;11.10;;
4434;SDS011;46552;52.150;8.428;2023-10-19T09:38:49;16.83;;;11.63;;
4434;SDS011;46552;52.150;8.428;2023-10-19T09:41:20;17.10;;;11.97;;
4434;SDS011;46552;52.150;8.428;2023-10-19T09:43:49;19.80;;;13.47;;
4434;SDS011;46552;52.150;8.428;2023-10-19T09:46:20;18.30;;;11.13;;
4434;SDS011;46552;52.150;8.428;2023-10-19T09:48:49;19.40;;;11.93;;
4434;SDS011;46552;52.150;8.428;2023-10-19T09:51:18;17.43;;;11.53;;
4434;SDS011;46552;52.150;8.428;2023-10-19T09:53:47;18.63;;;11.87;;
4434;SDS011;46552;52.150;8.428;2023-10-19T09:56:20;19.47;;;11.10;;
4434;SDS011;46552;52.150;8.428;2023-10-19T09:58:53;18.97;;;12.90;;
4434;SDS011;46552;52.150;8.428;2023-10-19T10:01:23;19.60;;;12.17;;
4434;SDS011;46552;52.150;8.428;2023-10-19T10:03:54;26.13;;;15.43;;
4434;SDS011;46552;52.150;8.428;2023-10-19T10:06:28;19.90;;;12.67;;
4434;SDS011;46552;52.150;8.428;2023-10-19T10:08:57;21.90;;;13.97;;
4434;SDS011;46552;52.150;8.428;2023-10-19T10:11:28;21.47;;;13.90;;
4434;SDS011;46552;52.150;8.428;2023-10-19T10:13:56;20.77;;;12.20;;
4434;SDS011;46552;52.150;8.428;2023-10-19T10:16:24;23.37;;;14.40;;
4434;SDS011;46552;52.150;8.428;2023-10-19T10:18:57;20.33;;;13.90;;
4434;SDS011;46552;52.150;8.428;2023-10-19T10:21:25;23.73;;;13.33;;
4434;SDS011;46552;52.150;8.428;2023-10-19T10:23:54;20.17;;;13.67;;
4434;SDS011;46552;52.150;8.428;2023-10-19T10:26:24;23.23;;;14.60;;
4434;SDS011;46552;52.150;8.428;2023-10-19T10:29:07;22.50;;;13.60;;
4434;SDS011;46552;52.150;8.428;2023-10-19T10:31:41;21.83;;;14.60;;
4434;SDS011;46552;52.150;8.428;2023-10-19T10:34:11;19.60;;;13.70;;
4434;SDS011;46552;52.150;8.428;2023-10-19T10:36:58;21.10;;;13.63;;
4434;SDS011;46552;52.150;8.428;2023-10-19T10:39:27;21.70;;;13.63;;
4434;SDS011;46552;52.150;8.428;2023-10-19T10:41:55;20.83;;;13.47;;
4434;SDS011;46552;52.150;8.428;2023-10-19T10:44:35;19.57;;;13.23;;
4434;SDS011;46552;52.150;8.428;2023-10-19T10:47:04;24.23;;;14.10;;
4434;SDS011;46552;52.150;8.428;2023-10-19T10:49:38;23.40;;;12.87;;
4434;SDS011;46552;52.150;8.428;2023-10-19T10:52:26;26.33;;;12.73;;
4434;SDS011;46552;52.150;8.428;2023-10-19T10:54:54;23.90;;;13.57;;
4434;SDS011;46552;52.150;8.428;2023-10-19T10:57:21;18.33;;;12.50;;
4434;SDS011;46552;52.150;8.428;2023-10-19T11:00:00;19.03;;;12.50;;
4434;SDS011;46552;52.150;8.428;2023-10-19T11:02:29;19.50;;;12.37;;
4434;SDS011;46552;52.150;8.428;2023-10-19T11:04:57;19.47;;;10.90;;
4434;SDS011;46552;52.150;8.428;2023-10-19T11:07:25;17.27;;;11.70;;
4434;SDS011;46552;52.150;8.428;2023-10-19T11:09:52;13.93;;;10.03;;
4434;SDS011;46552;52.150;8.428;2023-10-19T11:12:20;20.13;;;11.00;;
4434;SDS011;46552;52.150;8.428;2023-10-19T11:14:53;20.90;;;9.87;;
4434;SDS011;46552;52.150;8.428;2023-10-19T11:17:20;19.20;;;11.57;;
4434;SDS011;46552;52.150;8.428;2023-10-19T11:19:53;18.13;;;11.03;;
4434;SDS011;46552;52.150;8.428;2023-10-19T11:22:24;20.07;;;11.07;;
4434;SDS011;46552;52.150;8.428;2023-10-19T11:24:52;18.83;;;12.10;;
4434;SDS011;46552;52.150;8.428;2023-10-19T11:27:25;17.13;;;11.60;;
4434;SDS011;46552;52.150;8.428;2023-10-19T11:29:54;19.07;;;11.30;;
4434;SDS011;46552;52.150;8.428;2023-10-19T11:32:22;15.30;;;11.70;;
4434;SDS011;46552;52.150;8.428;2023-10-19T11:34:50;19.37;;;11.63;;
4434;SDS011;46552;52.150;8.428;2023-10-19T11:37:18;18.00;;;11.60;;
4434;SDS011;46552;52.150;8.428;2023-10-19T11:39:48;20.57;;;10.83;;
4434;SDS011;46552;52.150;8.428;2023-10-19T11:42:16;15.60;;;9.17;;
4434;SDS011;46552;52.150;8.428;2023-10-19T11:44:45;13.27;;;9.03;;
4434;SDS011;46552;52.150;8.428;2023-10-19T11:47:12;15.50;;;9.07;;
4434;SDS011;46552;52.150;8.428;2023-10-19T11:49:40;15.27;;;9.00;;
4434;SDS011;46552;52.150;8.428;2023-10-19T11:52:07;19.60;;;11.43;;
4434;SDS011;46552;52.150;8.428;2023-10-19T11:54:35;23.23;;;17.53;;
4434;SDS011;46552;52.150;8.428;2023-10-19T11:57:05;18.40;;;13.80;;
4434;SDS011;46552;52.150;8.428;2023-10-19T11:59:33;17.83;;;12.10;;
4434;SDS011;46552;52.150;8.428;2023-10-19T12:02:00;13.97;;;8.73;;
4434;SDS011;46552;52.150;8.428;2023-10-19T12:04:29;14.80;;;9.13;;
4434;SDS011;46552;52.150;8.428;2023-10-19T12:06:58;11.23;;;9.13;;
4434;SDS011;46552;52.150;8.428;2023-10-19T12:09:26;14.60;;;8.93;;
4434;SDS011;46552;52.150;8.428;2023-10-19T12:11:55;14.00;;;9.37;;
4434;SDS011;46552;52.150;8.428;2023-10-19T12:14:24;21.43;;;11.10;;
4434;SDS011;46552;52.150;8.428;2023-10-19T12:16:51;11.73;;;8.83;;
4434;SDS011;46552;52.150;8.428;2023-10-19T12:19:19;15.90;;;10.50;;
4434;SDS011;46552;52.150;8.428;2023-10-19T12:21:47;22.47;;;10.87;;
4434;SDS011;46552;52.150;8.428;2023-10-19T12:24:15;19.60;;;11.33;;
4434;SDS011;46552;52.150;8.428;2023-10-19T12:26:43;17.43;;;10.70;;
4434;SDS011;46552;52.150;8.428;2023-10-19T12:29:10;17.90;;;10.43;;
4434;SDS011;46552;52.150;8.428;2023-10-19T12:31:41;14.90;;;10.43;;
4434;SDS011;46552;52.150;8.428;2023-10-19T12:34:08;21.77;;;10.83;;
4434;SDS011;46552;52.150;8.428;2023-10-19T12:36:36;16.00;;;11.30;;
4434;SDS011;46552;52.150;8.428;2023-10-19T12:39:06;17.20;;;12.23;;
4434;SDS011;46552;52.150;8.428;2023-10-19T12:41:35;19.03;;;9.80;;
4434;SDS011;46552;52.150;8.428;2023-10-19T12:44:02;12.90;;;9.53;;
4434;SDS011;46552;52.150;8.428;2023-10-19T12:46:33;16.13;;;9.90;;
4434;SDS011;46552;52.150;8.428;2023-10-19T12:49:03;14.43;;;9.90;;
4434;SDS011;46552;52.150;8.428;2023-10-19T12:51:33;13.70;;;8.80;;
4434;SDS011;46552;52.150;8.428;2023-10-19T12:54:01;21.83;;;9.33;;
4434;SDS011;46552;52.150;8.428;2023-10-19T12:56:29;17.00;;;9.97;;
4434;SDS011;46552;52.150;8.428;2023-10-19T12:58:58;19.60;;;12.33;;
4434;SDS011;46552;52.150;8.428;2023-10-19T13:01:25;25.87;;;16.13;;
4434;SDS011;46552;52.150;8.428;2023-10-19T13:03:53;19.90;;;15.37;;
4434;SDS011;46552;52.150;8.428;2023-10-19T13:06:22;19.97;;;13.27;;
4434;SDS011;46552;52.150;8.428;2023-10-19T13:08:54;20.07;;;12.07;;
4434;SDS011;46552;52.150;8.428;2023-10-19T13:11:21;21.87;;;10.93;;
4434;SDS011;46552;52.150;8.428;2023-10-19T13:13:48;18.43;;;12.60;;
4434;SDS011;46552;52.150;8.428;2023-10-19T13:16:15;17.30;;;12.20;;
4434;SDS011;46552;52.150;8.428;2023-10-19T13:18:42;24.73;;;11.67;;
4434;SDS011;46552;52.150;8.428;2023-10-19T13:21:10;20.63;;;12.53;;
4434;SDS011;46552;52.150;8.428;2023-10-19T13:23:43;20.83;;;11.30;;
4434;SDS011;46552;52.150;8.428;2023-10-19T13:26:10;17.60;;;13.83;;
4434;SDS011;46552;52.150;8.428;2023-10-19T13:28:43;27.97;;;14.50;;
4434;SDS011;46552;52.150;8.428;2023-10-19T13:31:12;25.50;;;12.50;;
4434;SDS011;46552;52.150;8.428;2023-10-19T13:33:40;17.10;;;10.80;;
4434;SDS011;46552;52.150;8.428;2023-10-19T13:36:09;17.87;;;10.10;;
4434;SDS011;46552;52.150;8.428;2023-10-19T13:38:36;22.97;;;10.77;;
4434;SDS011;46552;52.150;8.428;2023-10-19T13:41:05;14.30;;;10.80;;
4434;SDS011;46552;52.150;8.428;2023-10-19T13:43:35;16.77;;;10.73;;
4434;SDS011;46552;52.150;8.428;2023-10-19T13:46:02;16.23;;;10.57;;
4434;SDS011;46552;52.150;8.428;2023-10-19T13:48:30;15.50;;;9.67;;
4434;SDS011;46552;52.150;8.428;2023-10-19T13:50:57;16.77;;;11.10;;
4434;SDS011;46552;52.150;8.428;2023-10-19T13:53:31;21.03;;;10.77;;
4434;SDS011;46552;52.150;8.428;2023-10-19T13:55:58;20.87;;;11.20;;
4434;SDS011;46552;52.150;8.428;2023-10-19T13:58:27;14.63;;;10.73;;
4434;SDS011;46552;52.150;8.428;2023-10-19T14:00:54;14.97;;;11.00;;
4434;SDS011;46552;52.150;8.428;2023-10-19T14:03:21;14.43;;;9.70;;
4434;SDS011;46552;52.150;8.428;2023-10-19T14:05:49;14.97;;;9.80;;
4434;SDS011;46552;52.150;8.428;2023-10-19T14:08:18;18.70;;;10.20;;
4434;SDS011;46552;52.150;8.428;2023-10-19T14:10:45;16.10;;;9.40;;
4434;SDS011;46552;52.150;8.428;2023-10-19T14:13:13;13.47;;;9.73;;
4434;SDS011;46552;52.150;8.428;2023-10-19T14:15:42;19.00;;;9.17;;
4434;SDS011;46552;52.150;8.428;2023-10-19T14:18:09;16.97;;;10.23;;
4434;SDS011;46552;52.150;8.428;2023-10-19T14:20:37;17.03;;;11.20;;
4434;SDS011;46552;52.150;8.428;2023-10-19T14:23:05;15.67;;;10.43;;
4434;SDS011;46552;52.150;8.428;2023-10-19T14:25:36;17.73;;;10.33;;
4434;SDS011;46552;52.150;8.428;2023-10-19T14:28:04;19.70;;;13.47;;
4434;SDS011;46552;52.150;8.428;2023-10-19T14:30:32;31.20;;;24.70;;
4434;SDS011;46552;52.150;8.428;2023-10-19T14:33:01;26.73;;;17.20;;
4434;SDS011;46552;52.150;8.428;2023-10-19T14:35:29;18.43;;;11.57;;
4434;SDS011;46552;52.150;8.428;2023-10-19T14:37:57;17.53;;;10.97;;
4434;SDS011;46552;52.150;8.428;2023-10-19T14:40:26;18.33;;;9.80;;
4434;SDS011;46552;52.150;8.428;2023-10-19T14:42:54;16.50;;;10.63;;
4434;SDS011;46552;52.150;8.428;2023-10-19T14:45:25;10.47;;;8.40;;
4434;SDS011;46552;52.150;8.428;2023-10-19T14:47:54;17.47;;;10.10;;